Time;durP1;ratioP1;P1;durP2;ratioP2;P2;SDS_P1;SDS_P2;PMS_P1;PMS_P2;Temp;Humidity;BMP_temperature;BMP_pressure;BME280_temperature;BME280_humidity;BME280_pressure;Samples;Min_cycle;Max_cycle;Signal;HPM_P1;HPM_P2
2022/12/11 00:01:16;;;;;;;5.53;3.05;;;12.10;96.70;;;;;;5073624;28;20132;-76
2022/12/11 00:03:45;;;;;;;4.60;2.90;;;12.10;96.70;;;;;;5080489;28;20085;-76
2022/12/11 00:06:17;;;;;;;6.07;3.20;;;12.10;96.70;;;;;;5064783;28;20043;-75
2022/12/11 00:08:46;;;;;;;4.60;2.88;;;12.10;96.70;;;;;;5081542;28;20900;-75
2022/12/11 00:11:16;;;;;;;4.80;2.15;;;12.10;96.70;;;;;;5083098;28;20520;-78
2022/12/11 00:13:48;;;;;;;6.40;2.08;;;12.10;96.70;;;;;;5072900;28;20048;-77
2022/12/11 00:16:17;;;;;;;4.47;2.78;;;12.00;96.70;;;;;;5080465;28;20044;-77
2022/12/11 00:18:53;;;;;;;4.53;1.98;;;12.00;96.70;;;;;;5080991;28;20040;-77
2022/12/11 00:21:21;;;;;;;7.80;2.45;;;12.00;96.70;;;;;;5065622;28;20040;-77
2022/12/11 00:23:49;;;;;;;5.03;2.42;;;12.00;96.70;;;;;;5083438;28;20487;-77
2022/12/11 00:26:19;;;;;;;4.38;2.05;;;11.90;96.70;;;;;;5086490;28;20477;-77
2022/12/11 00:28:52;;;;;;;3.20;1.95;;;11.80;96.70;;;;;;5083963;28;20071;-78
2022/12/11 00:31:22;;;;;;;4.78;2.17;;;11.90;96.70;;;;;;5084036;28;20337;-78
2022/12/11 00:33:50;;;;;;;4.25;2.20;;;11.80;96.70;;;;;;5084168;28;20055;-78
2022/12/11 00:36:21;;;;;;;4.70;2.38;;;11.70;96.70;;;;;;5066690;28;20075;-78
2022/12/11 00:38:50;;;;;;;4.18;1.90;;;11.70;96.70;;;;;;5083839;28;20055;-78
2022/12/11 00:41:18;;;;;;;5.05;2.42;;;11.60;96.70;;;;;;5084441;28;20047;-77
2022/12/11 00:43:47;;;;;;;5.40;2.08;;;11.60;96.70;;;;;;5084783;28;20114;-78
2022/12/11 00:46:17;;;;;;;3.50;1.80;;;11.60;96.70;;;;;;5083919;28;20044;-77
2022/12/11 00:48:45;;;;;;;5.38;2.40;;;11.70;96.70;;;;;;5083533;28;20043;-78
2022/12/11 00:51:13;;;;;;;3.72;1.90;;;11.80;96.70;;;;;;5083580;28;20504;-79
2022/12/11 00:53:42;;;;;;;5.22;2.70;;;11.80;96.70;;;;;;5082943;28;20040;-77
2022/12/11 00:56:13;;;;;;;4.78;2.20;;;11.80;96.70;;;;;;5082562;28;20390;-77
2022/12/11 00:58:43;;;;;;;4.35;2.42;;;11.80;96.70;;;;;;5085948;28;20052;-77
2022/12/11 01:01:14;;;;;;;3.20;2.25;;;11.90;96.70;;;;;;5084730;28;20127;-77
2022/12/11 01:03:45;;;;;;;6.20;2.50;;;11.80;96.70;;;;;;5067333;28;20134;-76
2022/12/11 01:06:15;;;;;;;4.03;3.10;;;11.80;96.70;;;;;;5084780;28;20040;-76
2022/12/11 01:08:44;;;;;;;6.53;2.50;;;11.80;96.70;;;;;;5085245;28;20040;-76
2022/12/11 01:11:14;;;;;;;4.82;2.60;;;11.70;96.70;;;;;;5081238;28;20068;-76
2022/12/11 01:13:43;;;;;;;4.35;2.42;;;11.70;96.70;;;;;;5082397;28;20539;-75
2022/12/11 01:16:14;;;;;;;4.88;2.55;;;11.60;96.70;;;;;;5084082;28;20075;-76
2022/12/11 01:18:44;;;;;;;4.10;2.65;;;11.60;96.70;;;;;;5083857;28;20055;-76
2022/12/11 01:21:13;;;;;;;4.53;3.25;;;11.60;96.70;;;;;;5085715;28;20155;-76
2022/12/11 01:23:42;;;;;;;5.78;3.85;;;11.60;96.70;;;;;;5084378;28;20062;-76
2022/12/11 01:26:13;;;;;;;8.45;3.80;;;11.60;96.70;;;;;;5085351;28;20040;-76
2022/12/11 01:28:43;;;;;;;7.75;4.25;;;11.60;96.70;;;;;;5084300;28;20052;-76
2022/12/11 01:31:15;;;;;;;5.45;3.03;;;11.50;96.70;;;;;;5084330;28;20111;-76
2022/12/11 01:33:46;;;;;;;6.03;3.20;;;11.50;96.70;;;;;;5083846;28;20051;-76
2022/12/11 01:36:18;;;;;;;8.73;3.80;;;11.50;96.70;;;;;;5083935;28;20125;-73
2022/12/11 01:38:48;;;;;;;4.78;2.80;;;11.50;96.70;;;;;;5079424;28;20048;-74
2022/12/11 01:41:18;;;;;;;4.45;2.60;;;11.50;96.70;;;;;;5085062;28;20040;-75
2022/12/11 01:44:02;;;;;;;3.85;2.67;;;11.50;96.70;;;;;;5083859;28;20505;-74
2022/12/11 01:46:32;;;;;;;6.10;3.40;;;11.40;96.70;;;;;;5084861;28;20048;-74
2022/12/11 01:49:06;;;;;;;3.15;2.60;;;11.40;96.70;;;;;;5076338;28;20167;-74
2022/12/11 01:51:40;;;;;;;3.67;2.80;;;11.40;96.70;;;;;;5082912;28;20081;-74
2022/12/11 01:54:12;;;;;;;3.90;2.33;;;11.40;96.70;;;;;;5084420;28;20127;-75
2022/12/11 01:56:42;;;;;;;3.10;2.03;;;11.50;96.70;;;;;;5065778;28;20052;-74
2022/12/11 01:59:14;;;;;;;3.92;2.05;;;11.40;96.70;;;;;;5075109;28;20090;-74
2022/12/11 02:01:47;;;;;;;4.10;2.00;;;11.30;96.70;;;;;;5083295;28;20105;-75
2022/12/11 02:04:18;;;;;;;2.63;1.80;;;11.10;96.70;;;;;;5078757;28;20040;-74
2022/12/11 02:06:49;;;;;;;3.55;1.90;;;11.10;96.70;;;;;;5083138;28;20443;-75
2022/12/11 02:09:22;;;;;;;2.90;2.55;;;11.10;96.70;;;;;;5082633;28;20072;-74
2022/12/11 02:11:56;;;;;;;3.25;2.45;;;11.30;96.70;;;;;;5059189;28;20059;-75
2022/12/11 02:14:33;;;;;;;3.70;2.55;;;11.30;96.70;;;;;;5084677;28;20451;-75
2022/12/11 02:17:04;;;;;;;;;;;11.30;96.70;;;;;;5082902;28;20805;-74
2022/12/11 02:19:48;;;;;;;2.45;2.08;;;11.40;96.70;;;;;;5076666;28;20250;-74
2022/12/11 02:22:32;;;;;;;4.72;2.60;;;11.40;96.70;;;;;;5084563;28;20047;-74
2022/12/11 02:25:09;;;;;;;3.55;2.65;;;11.40;96.70;;;;;;5082373;28;20058;-74
2022/12/11 02:27:45;;;;;;;6.32;3.08;;;11.50;96.70;;;;;;5076184;28;20044;-74
2022/12/11 02:30:16;;;;;;;4.25;3.10;;;11.60;96.70;;;;;;5083017;28;20071;-75
2022/12/11 02:32:48;;;;;;;4.25;3.60;;;11.60;96.70;;;;;;5082065;28;20050;-75
2022/12/11 02:35:21;;;;;;;6.07;3.42;;;11.60;96.70;;;;;;5081634;28;20066;-75
2022/12/11 02:37:54;;;;;;;5.68;3.40;;;11.60;96.70;;;;;;5083133;28;20051;-75
2022/12/11 02:40:27;;;;;;;5.32;3.10;;;11.50;96.70;;;;;;5081462;28;20050;-74
2022/12/11 02:43:00;;;;;;;6.80;3.55;;;11.40;96.70;;;;;;5080727;28;20493;-74
2022/12/11 02:45:31;;;;;;;4.63;2.50;;;11.50;96.70;;;;;;5081009;28;20710;-74
2022/12/11 02:48:03;;;;;;;4.93;2.58;;;11.40;96.70;;;;;;5082561;28;20135;-74
2022/12/11 02:50:35;;;;;;;6.00;2.28;;;11.20;96.70;;;;;;5083115;28;20167;-75
2022/12/11 02:53:06;;;;;;;3.75;2.03;;;11.10;96.70;;;;;;5083277;28;20076;-75
2022/12/11 02:55:37;;;;;;;7.63;1.83;;;11.10;96.70;;;;;;5085585;28;20576;-74
2022/12/11 02:58:12;;;;;;;4.88;1.63;;;11.00;96.70;;;;;;5082456;28;20044;-75
2022/12/11 03:00:48;;;;;;;4.63;1.50;;;11.00;96.70;;;;;;5067165;28;20139;-74
2022/12/11 03:03:21;;;;;;;3.78;1.45;;;11.00;96.70;;;;;;5083512;28;20082;-74
2022/12/11 03:05:53;;;;;;;5.07;1.60;;;11.10;96.70;;;;;;5080148;28;20083;-73
2022/12/11 03:08:25;;;;;;;9.13;1.20;;;11.20;96.70;;;;;;5075108;28;20182;-74
2022/12/11 03:10:55;;;;;;;3.45;1.20;;;11.30;96.70;;;;;;5082808;28;20696;-75
2022/12/11 03:13:30;;;;;;;4.20;1.63;;;11.40;96.70;;;;;;5084749;28;20273;-76
2022/12/11 03:16:13;;;;;;;4.72;1.48;;;11.40;96.70;;;;;;5085649;28;20066;-76
2022/12/11 03:18:51;;;;;;;8.70;1.50;;;11.50;96.70;;;;;;5085600;28;20044;-78
2022/12/11 03:21:26;;;;;;;4.43;1.35;;;11.50;96.70;;;;;;5082328;28;20054;-78
2022/12/11 03:24:02;;;;;;;4.93;1.23;;;11.60;96.70;;;;;;5083637;28;20048;-77
2022/12/11 03:26:36;;;;;;;8.43;1.73;;;11.50;96.70;;;;;;5081051;28;20417;-78
2022/12/11 03:29:15;;;;;;;7.67;1.43;;;11.60;96.70;;;;;;5081694;28;20051;-77
2022/12/11 03:31:53;;;;;;;7.97;1.35;;;11.60;96.70;;;;;;5081593;28;20096;-77
2022/12/11 03:34:28;;;;;;;5.63;1.55;;;11.60;96.70;;;;;;5081261;28;20410;-75
2022/12/11 03:36:59;;;;;;;3.80;1.23;;;11.60;96.70;;;;;;5073769;28;20242;-75
2022/12/11 03:39:31;;;;;;;6.25;1.50;;;11.60;96.70;;;;;;5082839;28;20048;-76
2022/12/11 03:42:01;;;;;;;6.00;1.52;;;11.60;96.70;;;;;;5079986;28;20040;-77
2022/12/11 03:44:32;;;;;;;5.22;2.08;;;11.50;96.70;;;;;;5080370;28;20044;-77
2022/12/11 03:47:05;;;;;;;6.45;1.67;;;11.60;96.70;;;;;;5074025;28;20532;-76
2022/12/11 03:49:38;;;;;;;11.68;1.80;;;11.60;96.70;;;;;;5081335;28;20044;-75
2022/12/11 03:52:10;;;;;;;6.65;1.70;;;11.50;96.70;;;;;;5083807;28;20040;-75
2022/12/11 03:54:42;;;;;;;9.10;1.60;;;11.50;96.70;;;;;;5082063;28;20048;-75
2022/12/11 03:57:15;;;;;;;5.50;1.60;;;11.50;96.70;;;;;;5085702;28;20044;-75
2022/12/11 03:59:44;;;;;;;7.80;1.95;;;11.60;96.70;;;;;;5085182;28;20592;-75
2022/12/11 04:02:14;;;;;;;8.98;2.08;;;11.60;96.70;;;;;;5084486;28;20093;-75
2022/12/11 04:04:43;;;;;;;5.90;1.67;;;11.60;96.70;;;;;;5087147;28;20581;-76
2022/12/11 04:07:11;;;;;;;9.00;2.05;;;11.60;96.70;;;;;;5087095;28;20043;-77
2022/12/11 04:09:40;;;;;;;8.63;1.70;;;11.60;96.70;;;;;;5084312;28;20059;-77
2022/12/11 04:12:09;;;;;;;11.65;2.10;;;11.60;96.70;;;;;;5074816;28;20141;-77
2022/12/11 04:25:49;;;;;;;6.15;1.85;;;11.60;96.70;;;;;;5077858;28;20082;-77
2022/12/11 04:28:18;;;;;;;7.95;2.05;;;11.60;96.70;;;;;;5082695;28;20044;-77
2022/12/11 04:30:48;;;;;;;5.97;1.42;;;11.60;96.70;;;;;;5066744;28;20067;-75
2022/12/11 04:33:18;;;;;;;6.30;1.77;;;11.60;96.70;;;;;;5084566;28;20044;-75
2022/12/11 04:35:47;;;;;;;7.75;2.10;;;11.60;96.70;;;;;;5084970;28;20047;-75
2022/12/11 04:38:15;;;;;;;6.10;1.73;;;11.60;96.70;;;;;;5083654;28;20162;-75
2022/12/11 04:40:44;;;;;;;6.05;1.63;;;11.60;96.70;;;;;;5084959;28;20047;-75
2022/12/11 04:43:12;;;;;;;6.72;2.28;;;11.60;96.70;;;;;;5083052;28;20066;-75
2022/12/11 04:45:41;;;;;;;8.00;2.30;;;11.60;96.70;;;;;;5083607;28;20044;-75
2022/12/11 04:48:09;;;;;;;6.80;1.80;;;11.60;96.70;;;;;;5082708;28;20382;-75
2022/12/11 04:50:40;;;;;;;5.20;1.50;;;11.50;96.70;;;;;;5085687;28;20064;-75
2022/12/11 04:53:09;;;;;;;10.73;2.78;;;11.50;96.70;;;;;;5068057;28;20048;-74
2022/12/11 04:55:39;;;;;;;7.65;2.30;;;11.50;96.70;;;;;;5084292;28;20157;-75
2022/12/11 04:58:08;;;;;;;6.88;2.20;;;11.40;96.70;;;;;;5067323;28;20051;-75
2022/12/11 05:00:39;;;;;;;6.85;2.65;;;11.40;96.70;;;;;;5066837;28;20503;-74
2022/12/11 05:03:07;;;;;;;6.45;2.10;;;11.40;96.70;;;;;;5084249;28;20058;-74
2022/12/11 05:05:36;;;;;;;6.88;1.80;;;11.30;96.70;;;;;;5061676;28;20055;-74
2022/12/11 05:08:07;;;;;;;12.18;1.83;;;11.30;96.70;;;;;;5080453;28;20044;-75
2022/12/11 05:10:36;;;;;;;7.97;2.00;;;11.30;96.70;;;;;;5064562;28;20622;-75
2022/12/11 05:13:32;;;;;;;17.45;3.20;;;11.30;96.70;;;;;;5020644;28;20545;-75
2022/12/11 05:16:03;;;;;;;14.52;3.17;;;11.30;96.70;;;;;;5042141;28;20052;-75
2022/12/11 05:18:32;;;;;;;9.73;1.67;;;11.30;96.70;;;;;;5024969;28;20049;-75
2022/12/11 05:21:03;;;;;;;8.77;1.75;;;11.30;96.70;;;;;;5041741;28;20059;-75
2022/12/11 05:23:33;;;;;;;8.95;1.95;;;11.30;96.70;;;;;;5025510;28;20056;-75
2022/12/11 05:26:06;;;;;;;10.07;1.83;;;11.30;96.70;;;;;;5009048;28;20144;-75
2022/12/11 05:28:36;;;;;;;10.48;1.75;;;11.30;96.70;;;;;;5042146;28;20055;-74
2022/12/11 05:31:08;;;;;;;10.00;1.88;;;11.30;96.70;;;;;;5025666;28;20457;-76
2022/12/11 05:33:36;;;;;;;14.82;2.28;;;11.30;96.70;;;;;;5008485;28;20632;-75
2022/12/11 05:36:06;;;;;;;8.02;1.98;;;11.30;96.70;;;;;;5008104;28;20040;-75
2022/12/11 05:38:36;;;;;;;9.63;1.70;;;11.30;96.70;;;;;;5040666;28;20418;-75
2022/12/11 05:41:06;;;;;;;10.68;2.58;;;11.40;96.70;;;;;;5023803;28;20045;-76
2022/12/11 05:43:35;;;;;;;8.07;1.60;;;11.40;96.70;;;;;;5047119;28;20056;-75
2022/12/11 05:46:08;;;;;;;9.07;1.92;;;11.40;96.70;;;;;;5075321;28;20060;-75
2022/12/11 05:48:37;;;;;;;8.05;1.65;;;11.40;96.70;;;;;;5083396;28;20087;-75
2022/12/11 05:51:07;;;;;;;6.25;1.80;;;11.40;96.70;;;;;;5066671;28;20080;-75
2022/12/11 05:53:39;;;;;;;8.43;1.75;;;11.40;96.70;;;;;;5084620;28;20159;-75
2022/12/11 05:56:10;;;;;;;10.27;2.03;;;11.50;96.70;;;;;;5081662;28;20068;-74
2022/12/11 05:58:38;;;;;;;8.80;1.92;;;11.50;96.70;;;;;;5075077;28;20699;-75
2022/12/11 06:01:07;;;;;;;8.55;2.10;;;11.50;96.70;;;;;;5065094;28;20039;-75
2022/12/11 06:03:35;;;;;;;9.77;2.05;;;11.50;96.70;;;;;;5081928;28;20138;-75
2022/12/11 06:06:04;;;;;;;5.00;1.92;;;11.50;96.70;;;;;;5081574;28;20070;-76
2022/12/11 06:08:33;;;;;;;5.78;1.98;;;11.50;96.70;;;;;;5081501;28;20076;-75
2022/12/11 06:11:03;;;;;;;5.75;1.38;;;11.50;96.70;;;;;;5063358;28;20040;-76
2022/12/11 06:13:31;;;;;;;5.53;1.55;;;11.40;96.70;;;;;;5080855;28;20087;-76
2022/12/11 06:16:01;;;;;;;3.45;1.10;;;11.30;96.70;;;;;;5081679;28;20100;-75
2022/12/11 06:18:30;;;;;;;3.03;1.02;;;11.10;96.70;;;;;;5082038;28;20044;-75
2022/12/11 06:20:58;;;;;;;2.80;1.00;;;11.00;96.70;;;;;;5065652;28;20791;-75
2022/12/11 06:23:27;;;;;;;3.58;1.35;;;10.90;96.70;;;;;;5099364;28;20480;-75
2022/12/11 06:25:55;;;;;;;1.25;0.60;;;10.80;96.70;;;;;;5081645;28;20048;-75
2022/12/11 06:28:25;;;;;;;1.92;0.60;;;10.80;96.70;;;;;;5081143;28;20059;-75
2022/12/11 06:30:53;;;;;;;1.67;0.63;;;10.70;96.70;;;;;;5083363;28;20123;-75
2022/12/11 06:33:22;;;;;;;1.27;0.45;;;10.70;96.70;;;;;;5066227;28;20055;-75
2022/12/11 06:35:50;;;;;;;2.15;0.50;;;10.70;96.70;;;;;;5099282;28;20052;-75
2022/12/11 06:38:18;;;;;;;1.65;1.02;;;10.60;96.70;;;;;;5082417;28;21544;-75
2022/12/11 06:40:54;;;;;;;1.00;0.30;;;10.50;96.70;;;;;;5081205;28;20667;-75
2022/12/11 06:43:24;;;;;;;0.90;0.30;;;10.50;96.70;;;;;;5080917;28;20056;-74
2022/12/11 06:45:52;;;;;;;1.95;0.40;;;10.50;96.70;;;;;;5081845;28;20044;-75
2022/12/11 06:48:28;;;;;;;2.85;0.40;;;10.50;96.70;;;;;;5081215;28;20108;-75
2022/12/11 06:50:56;;;;;;;0.98;0.40;;;10.50;96.70;;;;;;5084442;28;20039;-75
2022/12/11 06:53:25;;;;;;;1.15;0.30;;;10.60;96.70;;;;;;5083700;28;20108;-75
2022/12/11 06:55:53;;;;;;;2.35;0.50;;;10.50;96.70;;;;;;5083445;28;20131;-74
2022/12/11 06:58:24;;;;;;;0.88;0.60;;;10.50;96.70;;;;;;5089801;28;20052;-76
2022/12/11 07:00:52;;;;;;;1.60;0.50;;;10.50;96.70;;;;;;5081606;28;20051;-75
2022/12/11 07:03:20;;;;;;;1.85;0.60;;;10.50;96.70;;;;;;5099167;28;20047;-75
2022/12/11 07:05:49;;;;;;;1.55;0.30;;;10.40;96.70;;;;;;5083963;28;20059;-76
2022/12/11 07:08:17;;;;;;;2.25;0.77;;;10.50;96.70;;;;;;5082217;28;20051;-75
2022/12/11 07:10:45;;;;;;;1.65;0.40;;;10.60;96.70;;;;;;5081079;28;20594;-76
2022/12/11 07:13:14;;;;;;;1.23;0.40;;;10.50;96.70;;;;;;5080469;28;20048;-76
2022/12/11 07:15:44;;;;;;;2.63;1.23;;;10.50;96.70;;;;;;5075352;28;20048;-76
2022/12/11 07:18:13;;;;;;;1.23;0.70;;;10.60;96.70;;;;;;5085165;28;20056;-75
2022/12/11 07:20:41;;;;;;;1.10;0.52;;;10.70;96.70;;;;;;5082090;28;20773;-76
2022/12/11 07:23:10;;;;;;;2.92;0.60;;;10.80;96.70;;;;;;5082039;28;20051;-76
2022/12/11 07:25:39;;;;;;;1.83;0.50;;;10.80;96.70;;;;;;5082904;28;20083;-76
2022/12/11 07:28:28;;;;;;;1.45;0.40;;;10.90;96.70;;;;;;5074338;28;20119;-77
2022/12/11 07:30:58;;;;;;;1.30;0.60;;;10.90;96.70;;;;;;5097182;28;20138;-77
2022/12/11 07:33:26;;;;;;;0.85;0.40;;;11.00;96.70;;;;;;5084152;28;20506;-78
2022/12/11 07:35:54;;;;;;;1.17;0.60;;;11.00;96.70;;;;;;5081152;28;20454;-76
2022/12/11 07:38:22;;;;;;;3.58;0.90;;;11.10;96.70;;;;;;5079587;28;20032;-76
2022/12/11 07:40:50;;;;;;;1.45;0.60;;;11.10;96.70;;;;;;5063415;28;20190;-76
2022/12/11 07:43:18;;;;;;;1.25;0.73;;;11.10;96.70;;;;;;5080083;28;20044;-77
2022/12/11 07:45:47;;;;;;;2.42;0.90;;;11.10;96.70;;;;;;5079887;28;20040;-77
2022/12/11 07:48:17;;;;;;;1.23;0.73;;;11.10;96.70;;;;;;5083932;28;20485;-77
2022/12/11 07:50:45;;;;;;;1.25;0.70;;;11.10;96.70;;;;;;5083350;28;20060;-77
2022/12/11 07:53:13;;;;;;;3.13;0.90;;;11.10;96.70;;;;;;5081690;28;20040;-77
2022/12/11 07:55:42;;;;;;;1.52;0.80;;;11.10;96.70;;;;;;5064346;28;20082;-77
2022/12/11 07:58:10;;;;;;;2.47;0.70;;;11.10;96.70;;;;;;5079069;28;20048;-78
2022/12/11 08:00:38;;;;;;;2.20;0.80;;;11.10;96.70;;;;;;5085508;28;20097;-78
2022/12/11 08:03:06;;;;;;;0.95;0.50;;;11.00;96.70;;;;;;5081396;28;20058;-76
2022/12/11 08:05:36;;;;;;;1.60;0.70;;;11.00;96.70;;;;;;5082209;28;20492;-76
2022/12/11 08:08:04;;;;;;;1.73;0.80;;;11.00;96.70;;;;;;5084847;28;20118;-76
2022/12/11 08:10:32;;;;;;;2.15;0.93;;;10.90;96.70;;;;;;5081620;28;20424;-77
2022/12/11 08:13:01;;;;;;;1.75;0.90;;;10.90;96.70;;;;;;5084891;28;20054;-77
2022/12/11 08:15:29;;;;;;;1.67;0.95;;;10.80;96.70;;;;;;5084028;28;20040;-76
2022/12/11 08:17:57;;;;;;;2.20;1.00;;;10.90;96.70;;;;;;5083422;28;20413;-77
2022/12/11 08:20:25;;;;;;;2.00;1.20;;;11.10;96.70;;;;;;5083596;28;20097;-76
2022/12/11 08:22:55;;;;;;;3.15;1.25;;;11.20;96.70;;;;;;5076284;28;20560;-77
2022/12/11 08:25:26;;;;;;;2.35;1.05;;;11.10;96.70;;;;;;5080144;28;20055;-76
2022/12/11 08:27:53;;;;;;;2.33;1.20;;;11.10;96.70;;;;;;5063720;28;20048;-76
2022/12/11 08:30:22;;;;;;;1.42;0.90;;;11.20;96.70;;;;;;5078343;28;20626;-78
2022/12/11 08:32:50;;;;;;;1.83;1.05;;;11.10;96.70;;;;;;5078078;28;20156;-77
2022/12/11 08:35:18;;;;;;;2.30;0.93;;;11.20;96.70;;;;;;5075678;28;20405;-76
2022/12/11 08:37:47;;;;;;;6.85;3.50;;;11.30;96.70;;;;;;5073247;28;20048;-76
2022/12/11 08:40:17;;;;;;;2.95;1.73;;;11.30;96.70;;;;;;5080523;28;20452;-77
2022/12/11 08:42:45;;;;;;;3.75;1.38;;;11.10;96.70;;;;;;5080053;28;20046;-77
2022/12/11 08:45:13;;;;;;;2.45;1.20;;;11.00;96.70;;;;;;5074524;28;20044;-77
2022/12/11 08:47:41;;;;;;;2.90;1.77;;;11.00;96.70;;;;;;5081584;28;20113;-77
2022/12/11 08:50:10;;;;;;;2.80;1.50;;;11.00;96.70;;;;;;5080523;28;20106;-77
2022/12/11 08:52:38;;;;;;;2.83;1.67;;;11.00;96.70;;;;;;5078656;28;20047;-75
2022/12/11 08:55:08;;;;;;;1.73;1.00;;;11.00;96.70;;;;;;5080052;28;20063;-75
2022/12/11 08:57:38;;;;;;;2.15;1.00;;;10.90;96.70;;;;;;5062693;28;20094;-75
2022/12/11 09:00:11;;;;;;;4.15;1.35;;;10.90;96.70;;;;;;5079819;28;20058;-77
2022/12/11 09:02:39;;;;;;;1.50;1.13;;;10.90;96.70;;;;;;5083297;28;20044;-77
2022/12/11 09:05:08;;;;;;;1.85;1.02;;;10.90;96.70;;;;;;5082947;28;20044;-77
2022/12/11 09:07:38;;;;;;;3.20;1.67;;;11.00;96.70;;;;;;5082820;28;20501;-75
2022/12/11 09:10:08;;;;;;;5.50;2.10;;;11.10;96.70;;;;;;5078156;28;20494;-74
2022/12/11 09:12:38;;;;;;;4.60;1.48;;;11.00;96.70;;;;;;5083862;28;20044;-74
2022/12/11 09:15:07;;;;;;;4.05;1.42;;;11.10;96.70;;;;;;5082814;28;20048;-75
2022/12/11 09:17:35;;;;;;;13.23;7.30;;;11.30;96.70;;;;;;5077445;28;20047;-74
2022/12/11 09:20:05;;;;;;;5.35;2.58;;;11.60;96.70;;;;;;5065609;28;20491;-73
2022/12/11 09:22:33;;;;;;;4.00;2.08;;;11.60;96.70;;;;;;5084016;28;20136;-74
2022/12/11 09:25:01;;;;;;;2.55;1.35;;;11.80;96.70;;;;;;5079049;28;20036;-78
2022/12/11 09:27:29;;;;;;;3.17;1.42;;;12.10;96.70;;;;;;5076148;28;20068;-77
2022/12/11 09:29:59;;;;;;;2.65;1.05;;;12.30;96.70;;;;;;5079390;28;20138;-77
2022/12/11 09:32:27;;;;;;;3.17;1.67;;;12.40;96.70;;;;;;5065256;28;20044;-76
2022/12/11 09:34:55;;;;;;;2.92;1.20;;;12.50;96.70;;;;;;5077831;28;20064;-77
2022/12/11 09:37:24;;;;;;;3.83;1.45;;;12.50;96.70;;;;;;5077666;28;20075;-77
2022/12/11 09:39:52;;;;;;;4.00;1.60;;;12.60;96.70;;;;;;5080934;28;20040;-77
2022/12/11 09:42:26;;;;;;;5.47;1.48;;;12.60;96.70;;;;;;5081196;28;20040;-77
2022/12/11 09:44:57;;;;;;;3.10;1.08;;;12.60;96.70;;;;;;5064862;28;20044;-76
2022/12/11 09:47:32;;;;;;;3.20;1.08;;;12.60;96.70;;;;;;5082486;28;20039;-76
2022/12/11 09:50:11;;;;;;;3.45;1.95;;;12.50;96.70;;;;;;5079169;28;20048;-77
2022/12/11 09:52:50;;;;;;;2.33;1.23;;;12.50;96.70;;;;;;5078877;28;20059;-77
2022/12/11 09:55:23;;;;;;;1.95;0.82;;;12.60;96.70;;;;;;5080252;28;20039;-78
2022/12/11 09:57:58;;;;;;;3.50;1.80;;;12.60;96.70;;;;;;5079513;28;20671;-77
2022/12/11 10:00:32;;;;;;;2.45;1.42;;;12.70;96.70;;;;;;5081735;28;20496;-79
2022/12/11 10:03:23;;;;;;;3.90;1.55;;;12.70;96.70;;;;;;5075042;28;20046;-75
2022/12/11 10:05:59;;;;;;;4.47;1.20;;;12.60;96.70;;;;;;5075409;28;20055;-79
2022/12/11 10:08:41;;;;;;;4.18;1.77;;;12.70;96.70;;;;;;5081364;28;20504;-78
2022/12/11 10:11:30;;;;;;;2.42;1.40;;;12.50;96.70;;;;;;5081421;28;20097;-75
2022/12/11 10:14:07;;;;;;;3.95;1.85;;;12.50;96.70;;;;;;5075784;28;20052;-76
2022/12/11 10:16:38;;;;;;;2.58;1.60;;;12.40;96.70;;;;;;5081626;28;20143;-75
2022/12/11 10:19:16;;;;;;;3.03;1.80;;;12.30;96.70;;;;;;5064594;28;20048;-76
2022/12/11 10:21:48;;;;;;;4.00;1.80;;;12.20;96.70;;;;;;5077116;28;20674;-75
2022/12/11 10:24:24;;;;;;;2.45;1.30;;;12.10;96.70;;;;;;5081646;28;20528;-77
2022/12/11 10:27:18;;;;;;;3.33;1.27;;;12.20;96.70;;;;;;5081289;28;20040;-77
2022/12/11 10:29:47;;;;;;;1.73;1.00;;;12.30;96.70;;;;;;5064722;28;20137;-76
2022/12/11 10:32:22;;;;;;;4.00;1.20;;;12.40;96.70;;;;;;5078313;28;20055;-76
2022/12/11 10:35:01;;;;;;;4.32;1.83;;;12.40;96.70;;;;;;5080908;28;20044;-75
2022/12/11 10:37:29;;;;;;;3.88;2.20;;;12.50;96.70;;;;;;5072381;28;20202;-76
2022/12/11 10:39:57;;;;;;;2.83;1.80;;;12.50;96.70;;;;;;5081116;28;20056;-76
2022/12/11 10:42:26;;;;;;;3.65;2.38;;;12.50;96.70;;;;;;5063692;28;20050;-76
2022/12/11 10:44:59;;;;;;;3.45;2.45;;;12.50;96.70;;;;;;5077849;28;20081;-74
2022/12/11 10:47:28;;;;;;;5.35;3.40;;;12.40;96.70;;;;;;5079047;28;20143;-74
2022/12/11 10:49:59;;;;;;;4.15;2.50;;;12.40;96.70;;;;;;5078957;28;20040;-75
2022/12/11 10:52:31;;;;;;;4.75;3.10;;;12.30;96.70;;;;;;5064319;28;20040;-76
2022/12/11 10:55:02;;;;;;;3.60;3.30;;;12.30;96.70;;;;;;5077808;28;20142;-77
2022/12/11 10:57:33;;;;;;;3.95;2.63;;;12.20;96.70;;;;;;5081964;28;20210;-76
2022/12/11 11:00:04;;;;;;;4.30;2.13;;;12.00;96.70;;;;;;5080672;28;20386;-76
2022/12/11 11:02:35;;;;;;;2.45;1.92;;;11.80;96.70;;;;;;5080162;28;20071;-76
2022/12/11 11:05:28;;;;;;;2.88;1.98;;;11.80;96.70;;;;;;5080617;28;20074;-76
2022/12/11 11:08:13;;;;;;;2.90;1.80;;;11.80;96.70;;;;;;5070430;28;20156;-76
2022/12/11 11:10:52;;;;;;;4.13;1.55;;;11.90;96.70;;;;;;5079446;28;20151;-75
2022/12/11 11:13:22;;;;;;;2.55;1.35;;;11.80;96.70;;;;;;5079521;28;20075;-75
2022/12/11 11:15:59;;;;;;;2.05;1.50;;;11.70;96.70;;;;;;5080330;28;20044;-74
2022/12/11 11:18:29;;;;;;;3.22;1.65;;;11.50;96.70;;;;;;5080178;28;20052;-76
2022/12/11 11:21:00;;;;;;;2.67;1.60;;;11.50;96.70;;;;;;5081503;28;20044;-74
2022/12/11 11:23:28;;;;;;;2.78;1.10;;;11.60;96.70;;;;;;5080703;28;20513;-76
2022/12/11 11:25:59;;;;;;;3.25;1.20;;;11.70;96.70;;;;;;5080802;28;20040;-74
2022/12/11 11:28:29;;;;;;;1.48;1.00;;;11.60;96.70;;;;;;5080239;28;20035;-74
2022/12/11 11:31:05;;;;;;;2.70;1.02;;;11.60;96.70;;;;;;5080575;28;20109;-75
2022/12/11 11:33:35;;;;;;;2.42;1.00;;;11.60;96.70;;;;;;5081224;28;20047;-75
2022/12/11 11:36:06;;;;;;;2.35;1.13;;;11.40;96.70;;;;;;5080650;28;20051;-75
2022/12/11 11:38:37;;;;;;;2.47;1.30;;;11.40;96.70;;;;;;5081217;28;20583;-75
2022/12/11 11:41:14;;;;;;;2.67;1.55;;;11.20;96.70;;;;;;5080413;28;20078;-74
2022/12/11 11:43:45;;;;;;;2.50;1.48;;;11.30;96.70;;;;;;5081020;28;20043;-75
2022/12/11 11:46:18;;;;;;;2.35;1.48;;;11.40;96.70;;;;;;5080066;28;20500;-74
2022/12/11 11:48:52;;;;;;;2.30;1.48;;;11.50;96.70;;;;;;5081485;28;20044;-73
2022/12/11 11:51:28;;;;;;;1.92;1.20;;;11.30;96.70;;;;;;5080440;28;20068;-74
2022/12/11 11:53:58;;;;;;;2.45;1.48;;;11.40;96.70;;;;;;5080630;28;20246;-74
2022/12/11 11:56:30;;;;;;;1.58;1.00;;;11.30;96.70;;;;;;5080485;28;20043;-75
2022/12/11 11:59:05;;;;;;;2.45;1.13;;;11.20;96.70;;;;;;5062652;28;20044;-76
2022/12/11 12:01:33;;;;;;;3.88;1.65;;;11.20;96.70;;;;;;5081945;28;20079;-76
2022/12/11 12:04:03;;;;;;;2.28;1.33;;;11.30;96.70;;;;;;5081821;28;20060;-76
2022/12/11 12:06:54;;;;;;;3.83;1.77;;;11.20;96.70;;;;;;5080513;28;20509;-76
2022/12/11 12:09:37;;;;;;;3.33;1.48;;;11.10;96.70;;;;;;5077481;28;20161;-77
2022/12/11 12:12:14;;;;;;;5.35;1.80;;;11.20;96.70;;;;;;5079643;28;20063;-76
2022/12/11 12:15:08;;;;;;;1.92;1.10;;;11.50;96.70;;;;;;5079112;28;20052;-76
2022/12/11 12:17:47;;;;;;;2.20;1.52;;;11.50;96.70;;;;;;5065315;28;20056;-76
2022/12/11 12:20:29;;;;;;;2.40;1.38;;;11.40;96.70;;;;;;5085098;28;20074;-76
2022/12/11 12:23:13;;;;;;;1.60;1.08;;;11.50;96.70;;;;;;5076129;28;20486;-76
2022/12/11 12:25:54;;;;;;;2.97;1.50;;;11.60;96.70;;;;;;5083763;28;20043;-77
2022/12/11 12:28:41;;;;;;;2.00;1.17;;;12.00;96.70;;;;;;5082751;28;20047;-75
2022/12/11 12:31:21;;;;;;;2.75;1.80;;;12.10;96.70;;;;;;5083887;28;20044;-76
2022/12/11 12:33:59;;;;;;;2.65;1.45;;;12.00;96.70;;;;;;5083475;28;20409;-75
2022/12/11 12:36:34;;;;;;;2.53;1.60;;;12.00;96.70;;;;;;5083395;28;20044;-76
2022/12/11 12:39:13;;;;;;;2.75;2.03;;;11.90;96.70;;;;;;5083117;28;20539;-76
2022/12/11 12:41:51;;;;;;;2.83;1.95;;;11.90;96.70;;;;;;5066140;28;20055;-76
2022/12/11 12:44:21;;;;;;;3.30;2.05;;;11.70;96.70;;;;;;5084149;28;20040;-76
2022/12/11 12:46:56;;;;;;;3.40;2.05;;;11.70;96.70;;;;;;5083211;28;20520;-76
2022/12/11 12:49:38;;;;;;;3.72;2.47;;;11.60;96.70;;;;;;5083262;28;20129;-74
2022/12/11 12:52:12;;;;;;;4.00;1.83;;;11.70;96.70;;;;;;5082452;28;20052;-74
2022/12/11 12:55:12;;;;;;;3.20;2.30;;;11.70;96.70;;;;;;5076482;28;20044;-74
2022/12/11 12:57:34;;;;;;;4.07;2.40;;;11.90;96.70;;;;;;5082682;28;20075;-74
2022/12/11 13:00:03;;;;;;;3.80;2.83;;;11.80;96.70;;;;;;5082843;28;20058;-74
2022/12/11 13:02:49;;;;;;;3.42;2.35;;;11.90;96.70;;;;;;5075317;28;20058;-74
2022/12/11 13:05:22;;;;;;;4.57;2.50;;;12.10;96.70;;;;;;5083970;28;20055;-75
2022/12/11 13:07:54;;;;;;;3.67;2.58;;;12.30;96.70;;;;;;5082690;28;20052;-76
2022/12/11 13:10:27;;;;;;;2.92;1.83;;;12.20;96.70;;;;;;5083298;28;20040;-76
2022/12/11 13:12:56;;;;;;;3.13;2.25;;;12.10;96.70;;;;;;5082208;28;20105;-76
2022/12/11 13:15:32;;;;;;;2.58;2.15;;;12.00;96.70;;;;;;5082940;28;20275;-76
2022/12/11 13:18:03;;;;;;;4.43;2.60;;;11.80;96.70;;;;;;5079985;28;20052;-75
2022/12/11 13:20:45;;;;;;;4.38;2.47;;;11.80;96.70;;;;;;5081945;28;20504;-76